createdAt,value
2022-09-23T00:01:21.279Z,14.00
2022-09-23T00:03:51.070Z,14.00
2022-09-23T00:06:23.141Z,14.00
2022-09-23T00:08:53.472Z,13.90
2022-09-23T00:11:29.021Z,13.90
2022-09-23T00:13:58.676Z,13.90
2022-09-23T00:16:29.534Z,13.90
2022-09-23T00:18:59.605Z,13.90
2022-09-23T00:21:27.541Z,13.90
2022-09-23T00:23:57.000Z,13.80
2022-09-23T00:26:24.887Z,13.80
2022-09-23T00:28:52.865Z,13.80
2022-09-23T00:31:25.403Z,13.80
2022-09-23T00:33:58.663Z,13.80
2022-09-23T00:36:26.660Z,13.70
2022-09-23T00:38:54.937Z,13.60
2022-09-23T00:41:24.678Z,13.70
2022-09-23T00:44:00.734Z,13.70
2022-09-23T00:46:33.252Z,13.70
2022-09-23T00:49:06.691Z,13.80
2022-09-23T00:51:38.640Z,13.80
2022-09-23T00:54:06.635Z,13.70
2022-09-23T00:56:35.137Z,13.70
2022-09-23T00:59:03.103Z,13.70
2022-09-23T01:01:30.615Z,13.60
2022-09-23T01:03:58.463Z,13.60
2022-09-23T01:06:26.268Z,13.60
2022-09-23T01:08:54.099Z,13.60
2022-09-23T01:11:37.085Z,13.50
2022-09-23T01:14:22.187Z,13.50
2022-09-23T01:16:52.518Z,13.60
2022-09-23T01:19:52.838Z,13.60
2022-09-23T01:22:44.645Z,13.50
2022-09-23T01:25:31.583Z,13.50
2022-09-23T01:28:01.871Z,13.50
2022-09-23T01:30:52.568Z,13.60
2022-09-23T01:33:35.423Z,13.50
2022-09-23T01:36:14.104Z,13.40
2022-09-23T01:39:08.576Z,13.40
2022-09-23T01:42:03.409Z,13.20
2022-09-23T01:44:47.612Z,13.10
2022-09-23T01:47:27.796Z,13.20
2022-09-23T01:50:02.972Z,13.30
2022-09-23T01:52:46.214Z,13.30
2022-09-23T01:55:19.052Z,13.30
2022-09-23T01:58:04.105Z,13.40
2022-09-23T02:00:36.710Z,13.30
2022-09-23T02:03:17.794Z,13.30
2022-09-23T02:05:58.011Z,13.20
2022-09-23T02:08:33.874Z,13.20
2022-09-23T02:11:15.093Z,13.20
2022-09-23T02:14:07.792Z,13.20
2022-09-23T02:16:39.731Z,13.20
2022-09-23T02:19:27.158Z,13.20
2022-09-23T02:22:02.550Z,13.20
2022-09-23T02:24:35.682Z,13.20
2022-09-23T02:27:25.940Z,13.20
2022-09-23T02:30:15.779Z,13.20
2022-09-23T02:33:01.424Z,13.20
2022-09-23T02:35:49.173Z,13.10
2022-09-23T02:38:42.592Z,13.10
2022-09-23T02:41:26.348Z,13.10
2022-09-23T02:44:02.604Z,13.00
2022-09-23T02:46:30.547Z,13.10
2022-09-23T02:49:12.912Z,13.00
2022-09-23T02:51:43.234Z,13.00
2022-09-23T02:54:22.359Z,13.00
2022-09-23T02:56:49.703Z,12.90
2022-09-23T02:59:19.578Z,12.90
2022-09-23T03:01:52.941Z,12.90
2022-09-23T03:04:43.316Z,12.80
2022-09-23T03:07:48.068Z,12.80
2022-09-23T03:10:20.965Z,12.80
2022-09-23T03:13:27.384Z,12.90
2022-09-23T03:16:27.980Z,12.90
2022-09-23T03:19:26.315Z,12.90
2022-09-23T03:22:02.239Z,12.90
2022-09-23T03:24:34.632Z,12.90
2022-09-23T03:27:05.357Z,12.90
2022-09-23T03:29:33.990Z,12.90
2022-09-23T03:32:01.418Z,12.80
2022-09-23T03:34:33.846Z,12.80
2022-09-23T03:37:12.903Z,12.80
2022-09-23T03:39:57.303Z,12.80
2022-09-23T03:42:30.112Z,12.80
2022-09-23T03:44:58.019Z,12.80
2022-09-23T03:47:31.031Z,12.90
2022-09-23T03:50:00.497Z,13.00
2022-09-23T03:52:28.556Z,13.00
2022-09-23T03:54:58.238Z,13.00
2022-09-23T03:57:27.646Z,13.00
2022-09-23T03:59:54.976Z,13.00
2022-09-23T04:02:26.172Z,13.10
2022-09-23T04:04:53.413Z,13.10
2022-09-23T04:07:21.149Z,13.10
2022-09-23T04:09:48.864Z,13.10
2022-09-23T04:12:17.380Z,13.10
2022-09-23T04:14:45.069Z,13.10
2022-09-23T04:17:12.534Z,13.10
2022-09-23T04:19:39.815Z,13.10
2022-09-23T04:22:07.734Z,13.00
2022-09-23T04:24:35.020Z,13.00
2022-09-23T04:27:02.381Z,13.00
2022-09-23T04:29:32.320Z,13.00
2022-09-23T04:31:59.576Z,13.10
2022-09-23T04:34:26.886Z,13.10
2022-09-23T04:36:54.107Z,13.10
2022-09-23T04:39:21.414Z,13.20
2022-09-23T04:41:48.646Z,13.20
2022-09-23T04:44:16.137Z,13.20
2022-09-23T04:46:47.931Z,13.20
2022-09-23T04:49:16.167Z,13.10
2022-09-23T04:51:45.865Z,13.20
2022-09-23T04:54:15.007Z,13.20
2022-09-23T04:56:45.161Z,13.30
2022-09-23T04:59:12.331Z,13.30
2022-09-23T05:01:39.932Z,13.30
2022-09-23T05:04:10.571Z,13.30
2022-09-23T05:06:38.564Z,13.40
2022-09-23T05:09:07.780Z,13.40
2022-09-23T05:11:35.732Z,13.30
2022-09-23T05:14:07.408Z,13.40
2022-09-23T05:16:37.675Z,13.30
2022-09-23T05:19:05.530Z,13.40
2022-09-23T05:21:33.294Z,13.40
2022-09-23T05:24:00.916Z,13.50
2022-09-23T05:26:31.902Z,13.50
2022-09-23T05:29:00.341Z,13.50
2022-09-23T05:31:29.797Z,13.50
2022-09-23T05:33:59.945Z,13.50
2022-09-23T05:36:28.783Z,13.50
2022-09-23T05:39:01.519Z,13.50
2022-09-23T05:41:29.151Z,13.60
2022-09-23T05:43:57.495Z,13.60
2022-09-23T05:46:31.797Z,13.60
2022-09-23T05:49:02.876Z,13.60
2022-09-23T05:51:32.309Z,13.50
2022-09-23T05:54:04.291Z,13.50
2022-09-23T05:56:33.282Z,13.50
2022-09-23T05:59:02.699Z,13.50
2022-09-23T06:01:38.158Z,13.50
2022-09-23T06:04:07.829Z,13.60
2022-09-23T06:06:38.084Z,13.60
2022-09-23T06:09:06.776Z,13.50
2022-09-23T06:11:37.570Z,13.50
2022-09-23T06:14:05.631Z,13.60
2022-09-23T06:16:35.279Z,13.70
2022-09-23T06:19:06.876Z,13.70
2022-09-23T06:21:36.955Z,13.80
2022-09-23T06:24:05.782Z,13.90
2022-09-23T06:26:38.010Z,14.00
2022-09-23T06:29:11.458Z,14.10
2022-09-23T06:31:41.237Z,14.10
2022-09-23T06:34:14.643Z,14.10
2022-09-23T06:36:45.351Z,14.30
2022-09-23T06:39:16.760Z,14.40
2022-09-23T06:41:47.535Z,14.50
2022-09-23T06:44:17.512Z,14.60
2022-09-23T06:46:53.405Z,14.60
2022-09-23T06:49:23.317Z,14.80
2022-09-23T06:51:50.519Z,14.70
2022-09-23T06:54:20.736Z,14.80
2022-09-23T06:56:48.075Z,15.00
2022-09-23T06:59:17.050Z,15.10
2022-09-23T07:01:45.465Z,15.40
2022-09-23T07:04:12.943Z,15.60
2022-09-23T07:06:40.311Z,15.90
2022-09-23T07:09:08.616Z,16.10
2022-09-23T07:11:38.072Z,16.20
2022-09-23T07:14:05.376Z,16.30
2022-09-23T07:16:37.512Z,16.40
2022-09-23T07:19:05.371Z,16.50
2022-09-23T07:21:32.758Z,16.60
2022-09-23T07:24:02.569Z,16.60
2022-09-23T07:26:34.089Z,16.70
2022-09-23T07:29:06.597Z,16.80
2022-09-23T07:31:39.902Z,16.80
2022-09-23T07:34:08.846Z,16.80
2022-09-23T07:36:37.756Z,16.80
2022-09-23T07:39:05.204Z,16.90
2022-09-23T07:41:33.602Z,17.00
2022-09-23T07:44:11.067Z,17.00
2022-09-23T07:46:38.798Z,17.00
2022-09-23T07:49:07.046Z,17.00
2022-09-23T07:51:39.008Z,16.80
2022-09-23T07:54:13.010Z,16.90
2022-09-23T07:56:43.961Z,16.90
2022-09-23T07:59:17.686Z,17.00
2022-09-23T08:01:50.245Z,17.00
2022-09-23T08:04:33.108Z,17.00
2022-09-23T08:07:03.792Z,17.00
2022-09-23T08:09:41.416Z,17.00
2022-09-23T08:12:15.789Z,17.10
2022-09-23T08:14:45.968Z,17.10
2022-09-23T08:17:13.934Z,17.10
2022-09-23T08:19:41.098Z,17.30
2022-09-23T08:22:12.169Z,17.40
2022-09-23T08:24:39.391Z,17.40
2022-09-23T08:27:07.064Z,17.60
2022-09-23T08:29:36.800Z,17.60
2022-09-23T08:32:06.737Z,17.70
2022-09-23T08:34:36.235Z,17.80
2022-09-23T08:37:04.072Z,17.90
2022-09-23T08:39:31.822Z,18.10
2022-09-23T08:42:19.840Z,18.20
2022-09-23T08:44:49.756Z,18.50
2022-09-23T08:47:20.173Z,18.90
2022-09-23T08:50:06.699Z,19.20
2022-09-23T08:53:03.337Z,19.50
2022-09-23T08:55:34.130Z,19.90
2022-09-23T08:58:26.524Z,20.00
2022-09-23T09:01:20.659Z,20.20
2022-09-23T09:04:20.617Z,20.20
2022-09-23T09:07:37.971Z,20.60
2022-09-23T09:10:29.137Z,21.00
2022-09-23T09:13:22.968Z,21.40
2022-09-23T09:16:14.300Z,21.40
2022-09-23T09:18:53.520Z,21.50
2022-09-23T09:21:32.475Z,21.20
2022-09-23T09:24:00.468Z,21.30
2022-09-23T09:26:34.848Z,21.50
2022-09-23T09:29:34.311Z,21.60
2022-09-23T09:32:24.803Z,21.90
2022-09-23T09:34:57.858Z,22.00
2022-09-23T09:37:49.837Z,22.20
2022-09-23T09:40:18.546Z,22.30
2022-09-23T09:42:51.422Z,22.40
2022-09-23T09:45:46.597Z,22.50
2022-09-23T09:48:21.265Z,22.30
2022-09-23T09:50:49.592Z,22.30
2022-09-23T09:53:24.747Z,22.20
2022-09-23T09:56:10.354Z,22.20
2022-09-23T09:59:10.716Z,22.10
2022-09-23T10:01:40.546Z,22.10
2022-09-23T10:04:24.923Z,22.20
2022-09-23T10:07:07.473Z,22.20
2022-09-23T10:09:47.372Z,22.60
2022-09-23T10:12:23.387Z,22.60
2022-09-23T10:14:55.947Z,22.80
2022-09-23T10:17:31.538Z,22.80
2022-09-23T10:20:01.308Z,23.10
2022-09-23T10:22:35.344Z,23.50
2022-09-23T10:25:08.941Z,23.90
2022-09-23T10:27:39.699Z,24.70
2022-09-23T10:30:28.275Z,25.10
2022-09-23T10:32:58.350Z,25.30
2022-09-23T10:35:30.864Z,25.10
2022-09-23T10:37:59.939Z,25.00
2022-09-23T10:40:56.766Z,25.10
2022-09-23T10:44:17.706Z,25.80
2022-09-23T10:47:04.514Z,26.20
2022-09-23T10:49:55.615Z,26.60
2022-09-23T10:52:54.188Z,26.60
2022-09-23T10:55:34.344Z,26.10
2022-09-23T10:58:52.052Z,25.70
2022-09-23T11:01:39.502Z,25.00
2022-09-23T11:04:46.944Z,24.30
2022-09-23T11:07:38.627Z,24.10
2022-09-23T11:10:46.927Z,24.10
2022-09-23T11:14:05.190Z,24.20
2022-09-23T11:16:49.151Z,24.30
2022-09-23T11:19:35.123Z,24.00
2022-09-23T11:22:20.206Z,23.80
2022-09-23T11:25:24.216Z,23.60
2022-09-23T11:27:51.379Z,23.30
2022-09-23T11:30:20.830Z,22.90
2022-09-23T11:33:42.560Z,22.80
2022-09-23T11:36:19.774Z,22.70
2022-09-23T11:38:50.013Z,22.60
2022-09-23T11:41:23.477Z,22.50
2022-09-23T11:43:54.572Z,22.50
2022-09-23T11:46:42.068Z,22.50
2022-09-23T11:49:53.987Z,22.40
2022-09-23T11:52:39.339Z,22.20
2022-09-23T11:55:22.544Z,22.10
2022-09-23T11:57:56.569Z,22.00
2022-09-23T12:00:34.304Z,22.10
2022-09-23T12:03:44.783Z,22.00
2022-09-23T12:06:35.700Z,22.10
2022-09-23T12:09:12.270Z,22.10
2022-09-23T12:12:12.058Z,22.10
2022-09-23T12:15:02.541Z,22.10
2022-09-23T12:17:32.715Z,22.00
2022-09-23T12:20:03.261Z,22.00
2022-09-23T12:23:24.829Z,21.90
2022-09-23T12:26:01.839Z,21.90
2022-09-23T12:28:39.308Z,21.90
2022-09-23T12:31:12.948Z,21.90
2022-09-23T12:33:41.080Z,22.00
2022-09-23T12:36:14.857Z,22.00
2022-09-23T12:38:54.949Z,22.00
2022-09-23T12:41:49.221Z,22.10
2022-09-23T12:44:36.681Z,22.10
2022-09-23T12:47:25.206Z,22.10
2022-09-23T12:49:53.445Z,22.10
2022-09-23T12:52:25.415Z,22.00
2022-09-23T12:54:57.522Z,21.90
2022-09-23T12:57:33.866Z,21.80
2022-09-23T13:00:07.283Z,21.60
2022-09-23T13:02:34.423Z,21.60
2022-09-23T13:05:37.198Z,21.60
2022-09-23T13:08:16.311Z,21.40
2022-09-23T13:10:52.386Z,21.40
2022-09-23T13:13:25.916Z,21.40
2022-09-23T13:15:54.011Z,21.40
2022-09-23T13:18:26.349Z,21.40
2022-09-23T13:20:55.044Z,21.20
2022-09-23T13:23:24.018Z,21.30
2022-09-23T13:26:03.325Z,21.20
2022-09-23T13:28:37.613Z,21.30
2022-09-23T13:31:13.757Z,21.40
2022-09-23T13:33:51.233Z,21.50
2022-09-23T13:36:20.089Z,21.40
2022-09-23T13:38:50.061Z,21.40
2022-09-23T13:41:24.285Z,21.50
2022-09-23T13:43:58.640Z,21.40
2022-09-23T13:46:29.939Z,21.50
2022-09-23T13:48:57.457Z,21.60
2022-09-23T13:51:32.480Z,21.50
2022-09-23T13:54:01.536Z,21.60
2022-09-23T13:56:32.289Z,21.50
2022-09-23T13:59:29.335Z,21.70
2022-09-23T14:02:07.046Z,21.70
2022-09-23T14:04:36.820Z,21.70
2022-09-23T14:07:07.305Z,21.70
2022-09-23T14:09:38.482Z,21.70
2022-09-23T14:12:06.697Z,21.80
2022-09-23T14:14:37.027Z,21.90
2022-09-23T14:17:06.462Z,22.00
2022-09-23T14:19:36.274Z,22.00
2022-09-23T14:22:03.582Z,21.90
2022-09-23T14:24:36.815Z,21.80
2022-09-23T14:27:09.859Z,21.50
2022-09-23T14:29:46.414Z,21.40
2022-09-23T14:32:21.084Z,21.20
2022-09-23T14:34:55.392Z,21.30
2022-09-23T14:37:46.568Z,21.20
2022-09-23T14:40:36.123Z,21.20
2022-09-23T14:43:22.728Z,21.00
2022-09-23T14:45:56.177Z,21.00
2022-09-23T14:48:25.206Z,20.90
2022-09-23T14:50:58.575Z,20.90
2022-09-23T14:53:33.866Z,20.90
2022-09-23T14:56:06.906Z,20.90
2022-09-23T14:58:55.523Z,20.90
2022-09-23T15:01:38.878Z,20.80
2022-09-23T15:04:28.059Z,20.90
2022-09-23T15:06:59.461Z,21.00
2022-09-23T15:09:31.109Z,21.00
2022-09-23T15:12:07.896Z,21.10
2022-09-23T15:14:40.673Z,21.10
2022-09-23T15:17:25.256Z,21.10
2022-09-23T15:19:56.866Z,21.10
2022-09-23T15:22:25.190Z,21.00
2022-09-23T15:24:54.582Z,21.10
2022-09-23T15:27:33.261Z,21.00
2022-09-23T15:30:15.019Z,20.80
2022-09-23T15:32:46.470Z,20.90
2022-09-23T15:35:18.718Z,20.80
2022-09-23T15:37:48.883Z,20.90
2022-09-23T15:40:28.418Z,20.90
2022-09-23T15:43:01.666Z,20.80
2022-09-23T15:45:40.247Z,20.90
2022-09-23T15:48:12.985Z,20.90
2022-09-23T15:50:45.473Z,21.00
2022-09-23T15:53:25.772Z,21.00
2022-09-23T15:55:54.047Z,21.10
2022-09-23T15:58:25.184Z,21.20
2022-09-23T16:00:56.828Z,21.20
2022-09-23T16:03:28.443Z,21.10
2022-09-23T16:06:01.872Z,21.10
2022-09-23T16:08:30.175Z,21.10
2022-09-23T16:11:02.216Z,21.10
2022-09-23T16:13:29.513Z,21.00
2022-09-23T16:15:57.273Z,21.00
2022-09-23T16:18:24.533Z,21.00
2022-09-23T16:20:51.817Z,21.00
2022-09-23T16:23:34.469Z,21.00
2022-09-23T16:26:06.493Z,21.00
2022-09-23T16:28:34.417Z,20.90
2022-09-23T16:31:02.262Z,21.00
2022-09-23T16:33:29.972Z,20.90
2022-09-23T16:36:04.029Z,20.80
2022-09-23T16:38:32.470Z,20.80
2022-09-23T16:41:00.429Z,20.70
2022-09-23T16:43:32.673Z,20.80
2022-09-23T16:46:02.204Z,20.70
2022-09-23T16:48:30.015Z,20.60
2022-09-23T16:50:57.322Z,20.60
2022-09-23T16:53:29.759Z,20.50
2022-09-23T16:56:00.385Z,20.40
2022-09-23T16:58:27.581Z,20.30
2022-09-23T17:01:16.813Z,20.30
2022-09-23T17:03:44.068Z,20.10
2022-09-23T17:06:14.593Z,19.90
2022-09-23T17:08:48.117Z,19.80
2022-09-23T17:11:16.463Z,19.60
2022-09-23T17:13:47.520Z,19.60
2022-09-23T17:16:30.397Z,19.60
2022-09-23T17:18:58.273Z,19.50
2022-09-23T17:21:28.264Z,19.40
2022-09-23T17:23:56.977Z,19.40
2022-09-23T17:26:25.970Z,19.30
2022-09-23T17:28:54.640Z,19.20
2022-09-23T17:31:26.203Z,19.10
2022-09-23T17:33:55.888Z,19.00
2022-09-23T17:36:23.698Z,18.90
2022-09-23T17:38:54.125Z,18.90
2022-09-23T17:41:24.313Z,18.80
2022-09-23T17:43:57.124Z,18.80
2022-09-23T17:46:24.701Z,18.80
2022-09-23T17:48:55.655Z,18.80
2022-09-23T17:51:24.536Z,18.80
2022-09-23T17:53:54.725Z,18.80
2022-09-23T17:56:27.131Z,18.90
2022-09-23T17:59:01.631Z,19.00
2022-09-23T18:01:29.189Z,19.00
2022-09-23T18:04:02.005Z,19.10
2022-09-23T18:06:35.629Z,19.10
2022-09-23T18:09:10.291Z,19.10
2022-09-23T18:11:40.431Z,19.00
2022-09-23T18:14:24.015Z,19.00
2022-09-23T18:16:56.483Z,19.00
2022-09-23T18:19:24.681Z,19.10
2022-09-23T18:21:57.314Z,19.10
2022-09-23T18:24:33.061Z,19.10
2022-09-23T18:27:01.812Z,19.20
2022-09-23T18:29:29.515Z,19.10
2022-09-23T18:31:59.441Z,19.10
2022-09-23T18:34:28.558Z,19.20
2022-09-23T18:36:57.934Z,19.10
2022-09-23T18:39:25.279Z,19.10
2022-09-23T18:41:53.019Z,19.10
2022-09-23T18:44:20.755Z,19.10
2022-09-23T18:46:48.017Z,19.00
2022-09-23T18:49:33.894Z,19.00
2022-09-23T18:52:01.406Z,18.90
2022-09-23T18:54:29.814Z,18.90
2022-09-23T18:56:59.105Z,18.80
2022-09-23T18:59:29.775Z,18.80
2022-09-23T19:02:00.188Z,18.80
2022-09-23T19:04:30.321Z,18.80
2022-09-23T19:06:58.000Z,18.70
2022-09-23T19:09:27.559Z,18.70
2022-09-23T19:11:55.058Z,18.70
2022-09-23T19:14:22.826Z,18.70
2022-09-23T19:16:50.649Z,18.70
2022-09-23T19:19:17.978Z,18.60
2022-09-23T19:21:48.280Z,18.60
2022-09-23T19:24:20.182Z,18.70
2022-09-23T19:26:48.486Z,18.70
2022-09-23T19:29:19.608Z,18.70
2022-09-23T19:31:50.059Z,18.60
2022-09-23T19:34:23.905Z,18.70
2022-09-23T19:36:52.809Z,18.60
2022-09-23T19:39:25.738Z,18.60
2022-09-23T19:41:57.356Z,18.50
2022-09-23T19:44:26.735Z,18.50
2022-09-23T19:46:56.806Z,18.50
2022-09-23T19:49:25.568Z,18.40
2022-09-23T19:51:56.344Z,18.40
2022-09-23T19:54:26.555Z,18.40
2022-09-23T19:56:53.929Z,18.40
2022-09-23T19:59:21.212Z,18.30
2022-09-23T20:01:49.176Z,18.30
2022-09-23T20:04:19.862Z,18.30
2022-09-23T20:06:49.707Z,18.30
2022-09-23T20:09:17.105Z,18.30
2022-09-23T20:11:44.338Z,18.20
2022-09-23T20:14:13.012Z,18.20
2022-09-23T20:16:40.599Z,18.10
2022-09-23T20:19:10.687Z,18.10
2022-09-23T20:21:38.467Z,18.10
2022-09-23T20:24:06.977Z,18.10
2022-09-23T20:26:55.199Z,18.00
2022-09-23T20:29:22.439Z,18.00
2022-09-23T20:31:51.873Z,18.00
2022-09-23T20:34:19.524Z,17.90
2022-09-23T20:36:47.093Z,17.90
2022-09-23T20:39:14.251Z,17.90
2022-09-23T20:41:43.593Z,17.90
2022-09-23T20:44:12.729Z,17.90
2022-09-23T20:46:48.121Z,17.90
2022-09-23T20:49:17.102Z,17.90
2022-09-23T20:51:48.422Z,18.00
2022-09-23T20:54:19.093Z,17.90
2022-09-23T20:56:46.984Z,18.00
2022-09-23T20:59:14.898Z,17.90
2022-09-23T21:01:45.446Z,17.90
2022-09-23T21:04:13.160Z,17.80
2022-09-23T21:06:42.579Z,17.80
2022-09-23T21:09:12.067Z,17.90
2022-09-23T21:11:39.313Z,17.90
2022-09-23T21:14:06.679Z,18.00
2022-09-23T21:16:34.787Z,17.90
2022-09-23T21:19:08.052Z,17.90
2022-09-23T21:21:35.561Z,18.00
2022-09-23T21:24:33.080Z,18.00
2022-09-23T21:26:50.813Z,17.90
2022-09-23T21:29:20.120Z,17.90
2022-09-23T21:31:49.843Z,17.90
2022-09-23T21:34:17.203Z,17.90
2022-09-23T21:36:44.521Z,18.00
2022-09-23T21:39:14.838Z,18.00
2022-09-23T21:41:44.560Z,18.00
2022-09-23T21:44:14.419Z,18.00
2022-09-23T21:46:41.771Z,17.90
2022-09-23T21:49:09.166Z,17.90
2022-09-23T21:51:40.996Z,17.90
2022-09-23T21:54:14.133Z,17.90
2022-09-23T21:56:42.562Z,17.70
2022-09-23T21:59:10.587Z,17.40
2022-09-23T22:01:41.436Z,17.50
2022-09-23T22:04:19.218Z,17.50
2022-09-23T22:06:49.865Z,17.50
2022-09-23T22:09:19.446Z,17.70
2022-09-23T22:12:07.651Z,17.60
2022-09-23T22:14:35.058Z,17.60
2022-09-23T22:17:04.752Z,17.60
2022-09-23T22:19:40.228Z,17.50
2022-09-23T22:22:18.377Z,17.50
2022-09-23T22:24:46.877Z,17.50
2022-09-23T22:27:17.941Z,17.50
2022-09-23T22:30:03.600Z,17.40
2022-09-23T22:32:43.566Z,17.40
2022-09-23T22:35:13.694Z,17.50
2022-09-23T22:37:40.973Z,17.40
2022-09-23T22:40:11.038Z,17.40
2022-09-23T22:42:40.833Z,17.40
2022-09-23T22:45:09.577Z,17.40
2022-09-23T22:47:41.283Z,17.40
2022-09-23T22:50:14.336Z,17.40
2022-09-23T22:52:44.129Z,17.50
2022-09-23T22:55:12.715Z,17.50
2022-09-23T22:57:40.535Z,17.50
2022-09-23T23:00:09.425Z,17.50
2022-09-23T23:02:36.788Z,17.40
2022-09-23T23:05:04.269Z,17.50
2022-09-23T23:07:32.109Z,17.50
2022-09-23T23:10:01.902Z,17.50
2022-09-23T23:12:29.123Z,17.50
2022-09-23T23:14:56.564Z,17.40
2022-09-23T23:17:23.791Z,17.40
2022-09-23T23:19:51.347Z,17.40
2022-09-23T23:22:18.557Z,17.30
2022-09-23T23:24:46.234Z,17.30
2022-09-23T23:27:13.654Z,17.30
2022-09-23T23:29:43.603Z,17.30
2022-09-23T23:32:11.363Z,17.30
2022-09-23T23:34:39.185Z,17.30
2022-09-23T23:37:06.458Z,17.30
2022-09-23T23:39:33.987Z,17.30
2022-09-23T23:42:01.229Z,17.40
2022-09-23T23:44:30.585Z,17.40
2022-09-23T23:46:57.854Z,17.40
2022-09-23T23:49:25.653Z,17.50
2022-09-23T23:51:53.745Z,17.40
2022-09-23T23:54:21.022Z,17.40
2022-09-23T23:56:48.240Z,17.50
2022-09-23T23:59:20.030Z,17.40
